Time;durP1;ratioP1;P1;durP2;ratioP2;P2;SDS_P1;SDS_P2;PMS_P1;PMS_P2;Temp;Humidity;BMP_temperature;BMP_pressure;BME280_temperature;BME280_humidity;BME280_pressure;Samples;Min_cycle;Max_cycle;Signal;HPM_P1;HPM_P2
2022/01/09 00:00:02;;;;;;;0.30;0.30;;;2.10;97.90;;;;;;5010719;28;20095;-75
2022/01/09 00:02:28;;;;;;;0.30;0.30;;;2.10;98.10;;;;;;5012081;28;20014;-75
2022/01/09 00:04:54;;;;;;;0.50;0.50;;;2.10;97.70;;;;;;5012241;28;20026;-75
2022/01/09 00:07:19;;;;;;;0.30;0.30;;;2.00;98.20;;;;;;5012078;28;20470;-75
2022/01/09 00:09:45;;;;;;;0.40;0.40;;;1.90;98.30;;;;;;5012133;28;20050;-75
2022/01/09 00:12:11;;;;;;;0.40;0.40;;;1.80;97.70;;;;;;4994080;28;20061;-75
2022/01/09 00:14:37;;;;;;;0.30;0.30;;;1.70;98.30;;;;;;4994518;28;20482;-75
2022/01/09 00:17:04;;;;;;;0.30;0.30;;;1.60;99.30;;;;;;5010645;28;20097;-75
2022/01/09 00:19:29;;;;;;;0.30;0.30;;;1.60;99.20;;;;;;5010773;28;20029;-75
2022/01/09 00:21:55;;;;;;;1.52;1.42;;;1.70;99.50;;;;;;5011893;28;20030;-75
2022/01/09 00:24:21;;;;;;;0.38;0.38;;;1.60;98.70;;;;;;5011997;28;20029;-75
2022/01/09 00:26:47;;;;;;;0.40;0.40;;;1.60;99.60;;;;;;5011847;28;20026;-75
2022/01/09 00:29:13;;;;;;;0.40;0.40;;;1.60;98.90;;;;;;5011944;28;20100;-75
2022/01/09 00:31:39;;;;;;;0.40;0.40;;;1.50;99.70;;;;;;5011841;28;20437;-75
2022/01/09 00:34:04;;;;;;;0.50;0.50;;;1.50;99.80;;;;;;5010742;28;20030;-75
2022/01/09 00:36:33;;;;;;;0.40;0.40;;;1.50;99.90;;;;;;5010434;28;20433;-75
2022/01/09 00:38:58;;;;;;;0.47;0.47;;;1.60;99.40;;;;;;5010512;28;20038;-75
2022/01/09 00:41:24;;;;;;;14.25;1.65;;;1.60;99.60;;;;;;5010393;28;20117;-75
2022/01/09 00:43:50;;;;;;;0.30;0.30;;;1.70;99.90;;;;;;5010602;28;20112;-75
2022/01/09 00:46:17;;;;;;;0.30;0.30;;;1.80;99.90;;;;;;5026991;28;20030;-75
2022/01/09 00:48:43;;;;;;;0.32;0.32;;;1.90;99.90;;;;;;5010503;28;20022;-75
2022/01/09 00:51:09;;;;;;;0.30;0.30;;;1.90;99.90;;;;;;5026919;28;20457;-75
2022/01/09 00:53:35;;;;;;;0.50;0.50;;;1.90;99.90;;;;;;5010470;28;20049;-75
2022/01/09 00:56:01;;;;;;;0.30;0.30;;;1.80;99.60;;;;;;5011569;28;20029;-75
2022/01/09 00:58:26;;;;;;;0.45;0.45;;;1.80;99.90;;;;;;5011597;28;20045;-75
2022/01/09 01:00:53;;;;;;;0.40;0.40;;;1.90;99.90;;;;;;5010261;28;20029;-75
2022/01/09 01:03:20;;;;;;;0.40;0.40;;;1.80;99.90;;;;;;5010479;28;20076;-75
2022/01/09 01:05:46;;;;;;;0.35;0.35;;;1.90;99.90;;;;;;5011535;28;20385;-75
2022/01/09 01:08:11;;;;;;;0.40;0.40;;;2.00;99.90;;;;;;5011550;28;20022;-75
2022/01/09 01:10:37;;;;;;;12.35;4.03;;;2.10;99.90;;;;;;5010349;28;20052;-75
2022/01/09 01:13:03;;;;;;;0.40;0.40;;;2.00;99.90;;;;;;5010378;28;20030;-75
2022/01/09 01:15:30;;;;;;;0.40;0.40;;;2.10;99.90;;;;;;5011504;28;20096;-75
2022/01/09 01:17:56;;;;;;;0.40;0.40;;;2.00;99.90;;;;;;5011587;28;20494;-75
2022/01/09 01:20:23;;;;;;;0.30;0.30;;;2.20;99.90;;;;;;5011440;28;20072;-75
2022/01/09 01:22:51;;;;;;;0.30;0.30;;;2.30;99.90;;;;;;5011372;28;20462;-75
2022/01/09 01:25:18;;;;;;;0.30;0.30;;;2.30;99.60;;;;;;5012530;28;20392;-75
2022/01/09 01:27:44;;;;;;;0.30;0.30;;;2.50;99.90;;;;;;5014823;28;20029;-75
2022/01/09 01:30:11;;;;;;;0.30;0.30;;;2.50;99.90;;;;;;5014940;28;20014;-75
2022/01/09 01:32:37;;;;;;;0.30;0.30;;;2.40;99.50;;;;;;5014848;28;20026;-75
2022/01/09 01:35:03;;;;;;;0.65;0.65;;;2.30;99.90;;;;;;4997131;28;20097;-75
2022/01/09 01:37:29;;;;;;;0.30;0.30;;;2.30;99.90;;;;;;5014548;28;20026;-75
2022/01/09 01:39:55;;;;;;;7.53;6.90;;;2.30;99.40;;;;;;5013469;28;20033;-75
2022/01/09 01:42:20;;;;;;;0.40;0.40;;;2.30;98.90;;;;;;5014470;28;20026;-75
2022/01/09 01:44:49;;;;;;;0.30;0.30;;;2.50;99.10;;;;;;5013430;28;20490;-75
2022/01/09 01:47:16;;;;;;;0.30;0.30;;;2.60;98.80;;;;;;5013236;28;20040;-75
2022/01/09 01:49:43;;;;;;;0.40;0.40;;;2.70;98.50;;;;;;5013234;28;20033;-75
2022/01/09 01:52:10;;;;;;;0.40;0.40;;;2.70;98.80;;;;;;5013082;28;20308;-75
2022/01/09 01:54:35;;;;;;;0.45;0.45;;;2.60;98.70;;;;;;5030104;28;20026;-75
2022/01/09 01:57:03;;;;;;;0.35;0.35;;;2.60;99.10;;;;;;5013179;28;20049;-75
2022/01/09 01:59:29;;;;;;;0.47;0.47;;;2.50;99.40;;;;;;5013004;28;20042;-75
2022/01/09 02:01:55;;;;;;;0.30;0.30;;;2.40;99.50;;;;;;5012912;28;20022;-75
2022/01/09 02:04:21;;;;;;;0.35;0.35;;;2.30;99.90;;;;;;4996570;28;20176;-75
2022/01/09 02:06:47;;;;;;;0.30;0.30;;;2.20;99.90;;;;;;5014094;28;20022;-75
2022/01/09 02:09:13;;;;;;;0.30;0.30;;;2.20;99.90;;;;;;5014238;28;20054;-75
2022/01/09 02:11:38;;;;;;;0.57;0.57;;;2.00;99.90;;;;;;5014213;28;20581;-75
2022/01/09 02:14:04;;;;;;;0.63;0.40;;;2.00;99.90;;;;;;5014192;28;20025;-75
2022/01/09 02:16:30;;;;;;;0.30;0.30;;;2.00;99.90;;;;;;5014075;28;20101;-75
2022/01/09 02:18:58;;;;;;;0.40;0.40;;;2.00;99.90;;;;;;5012762;28;20026;-75
2022/01/09 02:21:26;;;;;;;0.30;0.30;;;2.00;99.90;;;;;;5012611;28;20022;-75
2022/01/09 02:23:52;;;;;;;0.40;0.40;;;2.00;99.90;;;;;;5012885;28;20022;-75
2022/01/09 02:26:19;;;;;;;0.45;0.45;;;1.80;99.90;;;;;;5012581;28;20473;-75
2022/01/09 02:28:46;;;;;;;0.28;0.28;;;1.70;99.90;;;;;;4996312;28;20052;-75
2022/01/09 02:31:12;;;;;;;0.40;0.40;;;1.70;99.90;;;;;;4996124;28;20025;-75
2022/01/09 02:33:38;;;;;;;0.30;0.30;;;1.60;99.90;;;;;;5013688;28;20029;-75
2022/01/09 02:36:04;;;;;;;0.38;0.38;;;1.50;99.90;;;;;;5012291;28;20034;-75
2022/01/09 02:38:30;;;;;;;0.50;0.50;;;1.60;99.90;;;;;;5012370;28;20474;-75
2022/01/09 02:40:56;;;;;;;0.38;0.38;;;1.50;99.90;;;;;;5013558;28;20029;-75
2022/01/09 02:43:23;;;;;;;1.63;0.98;;;1.50;99.90;;;;;;5028950;28;20026;-75
2022/01/09 02:45:58;;;;;;;0.30;0.30;;;1.50;99.90;;;;;;5012447;28;20160;-75
2022/01/09 02:48:24;;;;;;;0.40;0.40;;;1.50;99.90;;;;;;5013542;28;20018;-75
2022/01/09 02:51:00;;;;;;;0.30;0.30;;;1.60;99.90;;;;;;5012300;28;20369;-75
2022/01/09 02:53:29;;;;;;;0.40;0.40;;;1.80;99.90;;;;;;5012263;28;20057;-75
2022/01/09 02:55:55;;;;;;;0.30;0.30;;;1.90;99.90;;;;;;5012169;28;20030;-75
2022/01/09 02:58:22;;;;;;;0.30;0.30;;;2.00;99.90;;;;;;5027422;23;20033;-77
2022/01/09 03:00:48;;;;;;;2.28;2.17;;;2.10;99.90;;;;;;5031511;28;20095;-76
2022/01/09 03:03:14;;;;;;;0.30;0.30;;;2.40;99.90;;;;;;5031647;28;20384;-76
2022/01/09 03:05:40;;;;;;;0.30;0.30;;;2.40;99.90;;;;;;5032912;28;20053;-76
2022/01/09 03:08:06;;;;;;;0.30;0.30;;;2.40;99.90;;;;;;5031704;28;20072;-77
2022/01/09 03:10:32;;;;;;;0.30;0.30;;;2.40;99.90;;;;;;5031841;28;20029;-77
2022/01/09 03:12:58;;;;;;;0.30;0.30;;;2.40;99.90;;;;;;5032701;28;20417;-77
2022/01/09 03:15:25;;;;;;;0.30;0.30;;;2.60;99.90;;;;;;5031547;28;20017;-77
2022/01/09 03:17:52;;;;;;;2.92;2.40;;;2.60;99.90;;;;;;5032702;28;20095;-77
2022/01/09 03:20:20;;;;;;;0.30;0.30;;;2.50;99.90;;;;;;5032578;28;20079;-77
2022/01/09 03:22:47;;;;;;;0.30;0.30;;;2.50;99.90;;;;;;5031252;28;20110;-77
2022/01/09 03:25:14;;;;;;;0.32;0.32;;;2.40;99.90;;;;;;5032674;28;20018;-77
2022/01/09 03:27:41;;;;;;;0.30;0.30;;;2.40;99.90;;;;;;5014566;28;20048;-77
2022/01/09 03:30:09;;;;;;;0.30;0.30;;;2.40;99.90;;;;;;5014739;28;20037;-76
2022/01/09 03:32:37;;;;;;;0.30;0.30;;;2.40;99.90;;;;;;5031117;28;20057;-77
2022/01/09 03:35:04;;;;;;;0.30;0.30;;;2.50;99.90;;;;;;5032461;28;20055;-77
2022/01/09 03:37:30;;;;;;;0.28;0.28;;;2.50;99.90;;;;;;5032208;28;20029;-77
2022/01/09 03:39:56;;;;;;;0.30;0.30;;;2.50;99.90;;;;;;5031164;28;20025;-77
2022/01/09 03:42:22;;;;;;;0.30;0.30;;;2.60;99.90;;;;;;5032024;28;20091;-77
2022/01/09 03:44:47;;;;;;;0.30;0.30;;;2.60;99.90;;;;;;5031055;28;20021;-77
2022/01/09 03:47:13;;;;;;;0.30;0.30;;;2.70;99.90;;;;;;5031893;28;20022;-77
2022/01/09 03:49:39;;;;;;;0.30;0.30;;;2.60;99.90;;;;;;5032132;28;20094;-77
2022/01/09 03:52:05;;;;;;;0.30;0.30;;;2.80;99.90;;;;;;5032099;28;20028;-77
2022/01/09 03:54:31;;;;;;;0.30;0.30;;;2.90;99.90;;;;;;5032044;28;20056;-78
2022/01/09 03:56:57;;;;;;;0.30;0.30;;;2.70;99.90;;;;;;5031875;28;20064;-77
2022/01/09 03:59:23;;;;;;;0.38;0.38;;;2.70;99.90;;;;;;5031992;28;20044;-78
2022/01/09 04:01:48;;;;;;;0.32;0.32;;;2.80;99.90;;;;;;5031453;28;20060;-77
2022/01/09 04:04:14;;;;;;;0.30;0.30;;;2.70;99.90;;;;;;5032081;28;20057;-77
2022/01/09 04:06:46;;;;;;;0.30;0.30;;;2.60;99.90;;;;;;5030540;28;20034;-77
2022/01/09 04:09:19;;;;;;;0.30;0.30;;;2.50;99.90;;;;;;5030639;28;20021;-78
2022/01/09 04:11:49;;;;;;;0.30;0.30;;;2.30;99.90;;;;;;5030492;28;20074;-77
2022/01/09 04:14:15;;;;;;;0.57;0.57;;;2.20;99.90;;;;;;5014160;28;20090;-77
2022/01/09 04:16:41;;;;;;;0.30;0.30;;;2.20;99.90;;;;;;5030562;28;20029;-77
2022/01/09 04:19:12;;;;;;;0.30;0.30;;;2.20;99.90;;;;;;5031850;28;20021;-78
2022/01/09 04:21:42;;;;;;;0.25;0.25;;;2.20;99.90;;;;;;5031588;28;20453;-77
2022/01/09 04:24:09;;;;;;;0.30;0.30;;;2.30;99.90;;;;;;5031798;28;20013;-77
2022/01/09 04:26:34;;;;;;;0.40;0.40;;;2.30;99.90;;;;;;5030470;28;20113;-77
2022/01/09 04:29:00;;;;;;;0.30;0.30;;;2.20;99.90;;;;;;5030576;28;20454;-77
2022/01/09 04:31:26;;;;;;;0.30;0.30;;;2.20;99.90;;;;;;5030344;28;20049;-77
2022/01/09 04:33:52;;;;;;;2.85;2.75;;;2.20;99.90;;;;;;5031748;28;20021;-78
2022/01/09 04:36:17;;;;;;;0.30;0.30;;;2.30;99.90;;;;;;5031573;28;20025;-77
2022/01/09 04:38:43;;;;;;;0.40;0.40;;;2.30;99.90;;;;;;5031744;28;20071;-77
2022/01/09 04:41:09;;;;;;;0.40;0.40;;;2.40;99.90;;;;;;5030139;28;20091;-77
2022/01/09 04:43:34;;;;;;;0.30;0.30;;;2.40;99.90;;;;;;5030329;28;20025;-77
2022/01/09 04:46:00;;;;;;;1.45;1.35;;;2.40;99.90;;;;;;5030205;28;20025;-77
2022/01/09 04:48:26;;;;;;;0.30;0.30;;;2.50;99.90;;;;;;5013935;28;20021;-78
2022/01/09 04:50:53;;;;;;;0.30;0.30;;;2.50;99.90;;;;;;5031364;28;20052;-77
2022/01/09 04:53:19;;;;;;;0.50;0.50;;;2.40;99.90;;;;;;5031540;28;20026;-77
2022/01/09 04:55:48;;;;;;;0.50;0.50;;;2.40;99.90;;;;;;5031352;28;20070;-77
2022/01/09 04:58:14;;;;;;;0.30;0.30;;;2.40;99.90;;;;;;5013653;28;20117;-77
2022/01/09 05:00:40;;;;;;;0.30;0.30;;;2.50;99.90;;;;;;5033173;28;20068;-77
2022/01/09 05:03:06;;;;;;;0.38;0.38;;;2.50;99.90;;;;;;5035405;28;20056;-78
2022/01/09 05:05:33;;;;;;;0.30;0.30;;;2.50;99.90;;;;;;5036475;28;20021;-78
2022/01/09 05:07:59;;;;;;;0.40;0.40;;;2.50;99.90;;;;;;5018999;28;20021;-78
2022/01/09 05:10:25;;;;;;;0.30;0.30;;;2.50;99.90;;;;;;5035114;28;20022;-79
2022/01/09 05:12:51;;;;;;;0.30;0.30;;;2.40;99.90;;;;;;5036277;28;20071;-78
2022/01/09 05:15:19;;;;;;;0.40;0.40;;;2.60;99.90;;;;;;5035125;28;20052;-78
2022/01/09 05:17:46;;;;;;;0.40;0.40;;;2.60;99.90;;;;;;5034973;28;20033;-78
2022/01/09 05:20:12;;;;;;;0.40;0.40;;;2.70;99.90;;;;;;5036048;28;20021;-77
2022/01/09 05:22:38;;;;;;;0.40;0.40;;;2.60;99.90;;;;;;5036119;28;20101;-78
2022/01/09 05:25:08;;;;;;;0.30;0.30;;;2.70;99.90;;;;;;5036609;28;20096;-78
2022/01/09 05:27:36;;;;;;;0.40;0.40;;;2.80;99.90;;;;;;5036756;28;20018;-78
2022/01/09 05:30:04;;;;;;;0.40;0.40;;;2.90;99.90;;;;;;5035185;28;20052;-78
2022/01/09 05:32:30;;;;;;;0.32;0.32;;;2.90;99.90;;;;;;5035195;28;20040;-77
2022/01/09 05:34:55;;;;;;;0.40;0.40;;;2.90;99.90;;;;;;5036508;28;20029;-78
2022/01/09 05:37:21;;;;;;;0.30;0.30;;;2.90;99.90;;;;;;5034611;28;20453;-78
2022/01/09 05:39:47;;;;;;;0.50;0.50;;;2.90;99.90;;;;;;5035395;28;20025;-78
2022/01/09 05:42:13;;;;;;;0.30;0.30;;;2.80;99.90;;;;;;5035892;28;20029;-78
2022/01/09 05:44:40;;;;;;;0.45;0.45;;;2.80;99.90;;;;;;5036157;28;20074;-77
2022/01/09 05:47:06;;;;;;;0.40;0.40;;;2.90;99.90;;;;;;5035634;28;20026;-78
2022/01/09 05:49:32;;;;;;;0.30;0.30;;;2.90;99.90;;;;;;5034501;28;20025;-78
2022/01/09 05:51:57;;;;;;;0.40;0.40;;;2.90;99.90;;;;;;5017917;28;20026;-78
2022/01/09 05:54:24;;;;;;;0.40;0.40;;;2.90;99.90;;;;;;5034609;28;20044;-77
2022/01/09 05:56:51;;;;;;;0.30;0.30;;;2.90;99.90;;;;;;5035348;28;20092;-78
2022/01/09 05:59:18;;;;;;;0.63;0.47;;;2.90;99.90;;;;;;5034994;28;20037;-78
2022/01/09 06:01:44;;;;;;;0.40;0.40;;;2.90;99.90;;;;;;5033606;28;20052;-78
2022/01/09 06:04:10;;;;;;;0.40;0.40;;;2.90;99.90;;;;;;5035130;28;20436;-77
2022/01/09 06:06:36;;;;;;;0.38;0.38;;;2.90;99.90;;;;;;5033669;28;20071;-78
2022/01/09 06:09:02;;;;;;;0.40;0.40;;;2.90;99.90;;;;;;5035377;28;20056;-78
2022/01/09 06:11:28;;;;;;;0.82;0.82;;;2.80;99.90;;;;;;5034083;28;20392;-78
2022/01/09 06:13:54;;;;;;;0.40;0.40;;;2.80;99.90;;;;;;5035184;28;20022;-78
2022/01/09 06:16:19;;;;;;;0.40;0.40;;;2.70;99.90;;;;;;5034676;28;20029;-77
2022/01/09 06:18:45;;;;;;;0.30;0.30;;;2.80;99.90;;;;;;5035093;28;20414;-78
2022/01/09 06:21:11;;;;;;;0.30;0.30;;;2.80;99.90;;;;;;5034812;28;20029;-79
2022/01/09 06:23:37;;;;;;;0.63;0.63;;;2.80;99.90;;;;;;5017126;28;20057;-78
2022/01/09 06:26:03;;;;;;;0.45;0.45;;;2.80;99.90;;;;;;5033523;28;20057;-79
2022/01/09 06:28:28;;;;;;;0.28;0.28;;;2.90;99.90;;;;;;5034634;28;20027;-77
2022/01/09 06:30:54;;;;;;;0.40;0.40;;;3.00;99.90;;;;;;5034862;28;20021;-78
2022/01/09 06:33:20;;;;;;;0.30;0.30;;;3.20;99.90;;;;;;5033826;28;20100;-78
2022/01/09 06:35:46;;;;;;;0.40;0.40;;;3.30;99.90;;;;;;5035213;28;20022;-77
2022/01/09 06:38:12;;;;;;;0.30;0.30;;;3.40;99.90;;;;;;5033817;28;20409;-77
2022/01/09 06:40:37;;;;;;;0.30;0.30;;;3.40;99.90;;;;;;5034598;28;20068;-77
2022/01/09 06:43:03;;;;;;;0.40;0.40;;;3.50;99.90;;;;;;5033810;28;20022;-78
2022/01/09 06:45:29;;;;;;;0.40;0.40;;;3.60;99.90;;;;;;5035252;28;20036;-78
2022/01/09 06:47:57;;;;;;;0.47;0.47;;;3.50;99.90;;;;;;5017194;28;20449;-78
2022/01/09 06:50:23;;;;;;;0.30;0.30;;;3.60;99.90;;;;;;5033883;28;20017;-78
2022/01/09 06:52:49;;;;;;;0.30;0.30;;;3.70;99.90;;;;;;5034401;28;20437;-77
2022/01/09 06:55:15;;;;;;;0.30;0.30;;;3.70;99.90;;;;;;5033325;28;20075;-77
2022/01/09 06:57:42;;;;;;;0.32;0.32;;;3.70;99.90;;;;;;5032870;28;20018;-78
2022/01/09 07:00:10;;;;;;;1.10;0.40;;;3.70;99.90;;;;;;5033423;28;20030;-78
2022/01/09 07:02:36;;;;;;;0.30;0.30;;;3.60;99.90;;;;;;5034160;28;20022;-78
2022/01/09 07:05:03;;;;;;;1.58;0.52;;;3.60;99.90;;;;;;5032961;28;20061;-78
2022/01/09 07:07:29;;;;;;;0.30;0.30;;;3.60;99.90;;;;;;5016214;28;20032;-78
2022/01/09 07:09:54;;;;;;;0.30;0.30;;;3.50;99.90;;;;;;5016411;28;20021;-78
2022/01/09 07:12:20;;;;;;;0.30;0.30;;;3.50;99.90;;;;;;5033374;28;20087;-78
2022/01/09 07:14:46;;;;;;;0.30;0.30;;;3.40;99.90;;;;;;5032382;28;20055;-78
2022/01/09 07:17:13;;;;;;;0.30;0.30;;;3.20;99.90;;;;;;5015926;28;20029;-78
2022/01/09 07:19:39;;;;;;;0.22;0.22;;;3.20;99.90;;;;;;5032726;28;20127;-78
2022/01/09 07:22:05;;;;;;;0.20;0.20;;;3.00;99.90;;;;;;5032932;28;20239;-78
2022/01/09 07:24:31;;;;;;;0.30;0.30;;;2.90;99.90;;;;;;5032307;28;20057;-78
2022/01/09 07:26:57;;;;;;;1.95;0.82;;;2.90;99.90;;;;;;5032010;28;20017;-78
2022/01/09 07:29:23;;;;;;;0.47;0.47;;;2.70;99.90;;;;;;5033530;28;20523;-78
2022/01/09 07:31:51;;;;;;;0.30;0.30;;;2.50;99.90;;;;;;5032154;28;20029;-78
2022/01/09 07:34:18;;;;;;;0.45;0.40;;;2.50;99.90;;;;;;5026373;28;20036;-78
2022/01/09 07:36:44;;;;;;;0.30;0.30;;;2.40;99.90;;;;;;5025070;28;20531;-79
2022/01/09 07:39:09;;;;;;;0.30;0.30;;;2.30;99.90;;;;;;5032559;28;20029;-78
2022/01/09 07:41:36;;;;;;;0.20;0.20;;;2.30;99.90;;;;;;5036508;28;20033;-79
2022/01/09 07:44:02;;;;;;;0.30;0.30;;;2.20;99.90;;;;;;5033204;28;20021;-77
2022/01/09 07:46:27;;;;;;;0.65;0.65;;;2.30;99.90;;;;;;5014749;28;20025;-78
2022/01/09 07:48:53;;;;;;;0.32;0.32;;;2.20;99.90;;;;;;5020792;28;20029;-78
2022/01/09 07:51:19;;;;;;;0.20;0.20;;;2.10;99.90;;;;;;5032043;28;20044;-79
2022/01/09 07:53:45;;;;;;;0.20;0.20;;;2.20;99.90;;;;;;5033002;28;20021;-77
2022/01/09 07:56:10;;;;;;;0.25;0.25;;;2.20;99.90;;;;;;5031588;28;20512;-78
2022/01/09 07:58:36;;;;;;;0.38;0.38;;;2.20;99.90;;;;;;5033155;28;20040;-78
2022/01/09 08:01:02;;;;;;;0.20;0.20;;;2.20;99.90;;;;;;5033265;28;20025;-79
2022/01/09 08:03:28;;;;;;;0.30;0.30;;;2.20;99.90;;;;;;5033220;28;20025;-78
2022/01/09 08:05:54;;;;;;;0.30;0.30;;;2.30;99.90;;;;;;5037082;28;20024;-78
2022/01/09 08:08:19;;;;;;;0.20;0.20;;;2.30;99.90;;;;;;5040601;28;20021;-78
2022/01/09 08:10:45;;;;;;;1.20;0.75;;;2.40;99.90;;;;;;5031885;28;20033;-78
2022/01/09 08:13:11;;;;;;;1.02;0.85;;;2.40;99.90;;;;;;5015150;28;20501;-78
2022/01/09 08:15:36;;;;;;;0.47;0.47;;;2.40;99.90;;;;;;5032754;28;20100;-77
2022/01/09 08:18:02;;;;;;;0.40;0.40;;;2.50;99.90;;;;;;5032735;28;20427;-77
2022/01/09 08:20:28;;;;;;;0.30;0.30;;;2.50;99.90;;;;;;5032892;28;20152;-79
2022/01/09 08:22:54;;;;;;;0.30;0.30;;;2.50;99.90;;;;;;5032234;28;20056;-78
2022/01/09 08:25:20;;;;;;;0.20;0.20;;;2.50;99.90;;;;;;5031275;28;20116;-78
2022/01/09 08:27:46;;;;;;;0.20;0.20;;;2.40;99.90;;;;;;5032414;28;20080;-77
2022/01/09 08:30:14;;;;;;;0.32;0.32;;;2.40;99.90;;;;;;5033253;28;20025;-78
2022/01/09 08:32:40;;;;;;;0.30;0.30;;;2.60;99.90;;;;;;5031642;28;20633;-81
2022/01/09 08:35:07;;;;;;;0.20;0.20;;;2.50;99.90;;;;;;5035958;28;20028;-81
2022/01/09 08:37:33;;;;;;;0.32;0.32;;;2.50;99.90;;;;;;5019202;28;20037;-81
2022/01/09 08:39:59;;;;;;;0.30;0.30;;;2.40;99.90;;;;;;5034102;28;20111;-81
2022/01/09 08:42:25;;;;;;;0.30;0.30;;;2.40;99.90;;;;;;5019729;28;20051;-79
2022/01/09 08:44:50;;;;;;;0.30;0.30;;;2.50;99.90;;;;;;5036293;28;20025;-79
2022/01/09 08:47:16;;;;;;;0.40;0.40;;;2.50;99.90;;;;;;5019430;28;20052;-80
2022/01/09 08:49:43;;;;;;;0.28;0.28;;;2.50;99.90;;;;;;5019384;28;20028;-81
2022/01/09 08:52:09;;;;;;;0.40;0.40;;;2.50;99.90;;;;;;5019512;28;20022;-81
2022/01/09 08:54:34;;;;;;;0.50;0.50;;;2.40;99.90;;;;;;5019178;28;20067;-81
2022/01/09 08:57:01;;;;;;;0.25;0.25;;;2.40;99.90;;;;;;5015685;28;20109;-80
2022/01/09 08:59:27;;;;;;;0.30;0.30;;;2.40;99.90;;;;;;5016410;28;20089;-80
2022/01/09 09:01:53;;;;;;;0.40;0.40;;;2.50;99.90;;;;;;5016280;28;20033;-80
2022/01/09 09:04:19;;;;;;;1.50;1.17;;;2.40;99.90;;;;;;5016359;28;20026;-80
2022/01/09 09:06:45;;;;;;;0.30;0.30;;;2.40;99.90;;;;;;5015964;28;20026;-79
2022/01/09 09:09:11;;;;;;;0.30;0.30;;;2.30;99.90;;;;;;5032160;28;20029;-80
2022/01/09 09:11:38;;;;;;;0.30;0.30;;;2.40;99.90;;;;;;5015481;28;20402;-81
2022/01/09 09:14:04;;;;;;;0.55;0.55;;;2.40;99.90;;;;;;4999631;28;20416;-80
2022/01/09 09:16:31;;;;;;;1.70;0.52;;;2.40;99.90;;;;;;5015771;28;20061;-80
2022/01/09 09:21:25;;;;;;;0.30;0.30;;;2.30;99.90;;;;;;5053100;28;20129;-75
2022/01/09 09:23:50;;;;;;;8.05;0.50;;;2.40;99.90;;;;;;5036842;28;20440;-75
2022/01/09 09:26:16;;;;;;;0.20;0.20;;;2.40;99.90;;;;;;5020260;28;20384;-75
2022/01/09 09:28:45;;;;;;;0.32;0.32;;;2.50;99.90;;;;;;5036905;28;20024;-75
2022/01/09 09:31:12;;;;;;;0.30;0.30;;;2.40;99.90;;;;;;5036474;28;20418;-75
2022/01/09 09:33:37;;;;;;;0.20;0.20;;;2.40;99.90;;;;;;5054582;28;20100;-75
2022/01/09 09:36:03;;;;;;;0.20;0.20;;;2.30;99.90;;;;;;5036316;28;20112;-75
2022/01/09 09:38:30;;;;;;;0.45;0.43;;;2.40;99.90;;;;;;5036816;28;20091;-74
2022/01/09 09:40:57;;;;;;;0.77;0.30;;;2.40;99.90;;;;;;5054310;28;20029;-75
2022/01/09 09:43:23;;;;;;;0.30;0.30;;;2.30;99.90;;;;;;5036846;28;20545;-75
2022/01/09 09:45:49;;;;;;;0.30;0.30;;;2.40;99.90;;;;;;5053263;28;20100;-75
2022/01/09 09:48:15;;;;;;;0.50;0.50;;;2.30;99.90;;;;;;5020004;28;20035;-75
2022/01/09 09:50:40;;;;;;;0.30;0.30;;;2.30;99.90;;;;;;5054155;28;20080;-75
2022/01/09 09:53:06;;;;;;;0.50;0.50;;;2.20;99.90;;;;;;5036286;28;20028;-75
2022/01/09 09:55:32;;;;;;;1.23;0.90;;;2.20;99.90;;;;;;5054042;28;20025;-75
2022/01/09 09:57:58;;;;;;;0.30;0.30;;;2.20;99.90;;;;;;5054100;28;20025;-75
2022/01/09 10:00:25;;;;;;;0.20;0.20;;;2.20;99.90;;;;;;5036321;28;20036;-75
2022/01/09 10:03:01;;;;;;;0.55;0.45;;;2.20;99.90;;;;;;5035966;28;20029;-75
2022/01/09 10:05:38;;;;;;;4.47;0.50;;;2.10;99.90;;;;;;5019647;28;20549;-75
2022/01/09 10:08:09;;;;;;;0.20;0.20;;;2.10;99.90;;;;;;5054081;28;20078;-75
2022/01/09 10:10:36;;;;;;;0.30;0.30;;;2.20;99.90;;;;;;5019712;28;20025;-75
2022/01/09 10:13:09;;;;;;;0.40;0.40;;;2.20;99.90;;;;;;5053758;28;20025;-75
2022/01/09 10:15:50;;;;;;;0.32;0.32;;;2.20;99.90;;;;;;5036081;28;20063;-75
2022/01/09 10:18:39;;;;;;;0.30;0.30;;;2.10;99.90;;;;;;5035984;28;20025;-75
2022/01/09 10:21:26;;;;;;;0.30;0.30;;;2.10;99.90;;;;;;5035729;28;20112;-75
2022/01/09 10:23:57;;;;;;;0.20;0.20;;;2.10;99.90;;;;;;5035527;28;20520;-75
2022/01/09 10:26:23;;;;;;;;;;;2.10;99.90;;;;;;5036325;28;20476;-76
2022/01/09 10:28:49;;;;;;;3.72;2.15;;;2.20;99.90;;;;;;5053726;28;19916;-76
2022/01/09 10:31:16;;;;;;;0.20;0.20;;;2.30;99.90;;;;;;5053656;28;20032;-76
2022/01/09 10:33:58;;;;;;;0.40;0.40;;;2.20;99.90;;;;;;5035749;28;20017;-76
2022/01/09 10:36:42;;;;;;;;;;;2.20;99.90;;;;;;5019589;28;20025;-76
2022/01/09 10:39:16;;;;;;;0.30;0.30;;;2.20;99.90;;;;;;5052607;28;20257;-75
2022/01/09 10:41:50;;;;;;;23.05;0.75;;;2.40;99.90;;;;;;5035185;28;20021;-76
2022/01/09 10:44:20;;;;;;;0.45;0.45;;;2.40;99.90;;;;;;5035704;28;20032;-76
2022/01/09 10:46:56;;;;;;;0.20;0.20;;;2.40;99.90;;;;;;5035451;28;20024;-76
2022/01/09 10:49:23;;;;;;;0.20;0.20;;;2.50;99.90;;;;;;5053350;28;20370;-76
2022/01/09 10:51:49;;;;;;;0.75;0.50;;;2.50;99.90;;;;;;5035390;28;20451;-76
2022/01/09 10:54:35;;;;;;;0.50;0.50;;;2.50;99.90;;;;;;5053455;28;20539;-77
2022/01/09 10:57:20;;;;;;;0.35;0.35;;;2.40;99.90;;;;;;5034878;28;20132;-76
2022/01/09 10:59:46;;;;;;;0.43;0.43;;;2.40;99.90;;;;;;5053084;28;20029;-76
2022/01/09 11:02:13;;;;;;;1.65;0.60;;;2.50;99.90;;;;;;5034806;28;20032;-76
2022/01/09 11:04:47;;;;;;;1.10;1.10;;;2.50;99.90;;;;;;5053294;28;20028;-76
2022/01/09 11:07:13;;;;;;;0.30;0.30;;;2.50;99.90;;;;;;5052817;28;20028;-76
2022/01/09 11:09:42;;;;;;;1.45;0.80;;;2.50;99.90;;;;;;5053031;28;20492;-75
2022/01/09 11:12:08;;;;;;;0.80;0.80;;;2.40;99.90;;;;;;5034859;28;20032;-75
2022/01/09 11:14:40;;;;;;;0.20;0.20;;;2.50;99.90;;;;;;5052837;28;20057;-76
2022/01/09 11:17:08;;;;;;;0.20;0.20;;;2.40;99.90;;;;;;5018508;28;20021;-76
2022/01/09 11:19:34;;;;;;;1.98;1.15;;;2.50;99.90;;;;;;5053064;28;20646;-75
2022/01/09 11:22:06;;;;;;;0.20;0.20;;;2.40;99.90;;;;;;5034995;28;20618;-76
2022/01/09 11:25:10;;;;;;;0.25;0.25;;;2.30;99.90;;;;;;5052745;28;20054;-76
2022/01/09 11:27:52;;;;;;;0.82;0.82;;;2.30;99.90;;;;;;5034276;28;20417;-76
2022/01/09 11:30:31;;;;;;;0.93;0.32;;;2.40;99.90;;;;;;5035005;28;20029;-76
2022/01/09 11:33:13;;;;;;;0.20;0.20;;;2.20;99.90;;;;;;5052824;28;20025;-76
2022/01/09 11:35:52;;;;;;;;;;;2.10;99.90;;;;;;5018747;28;20488;-75
2022/01/09 11:38:35;;;;;;;0.30;0.30;;;2.10;99.90;;;;;;5018427;28;20383;-76
2022/01/09 11:41:19;;;;;;;2.28;0.70;;;2.20;99.90;;;;;;5018241;28;20365;-75
2022/01/09 11:44:01;;;;;;;0.38;0.38;;;2.10;99.90;;;;;;5052534;28;20029;-75
2022/01/09 11:46:52;;;;;;;0.30;0.30;;;2.00;99.90;;;;;;5052470;28;20059;-77
2022/01/09 11:49:20;;;;;;;0.20;0.20;;;2.00;99.90;;;;;;5034736;28;20036;-78
2022/01/09 11:51:59;;;;;;;0.25;0.25;;;2.20;99.90;;;;;;5034921;28;20066;-77
2022/01/09 11:54:26;;;;;;;0.30;0.30;;;2.10;99.90;;;;;;5052549;28;20048;-75
2022/01/09 11:57:08;;;;;;;1.05;1.05;;;2.30;99.90;;;;;;5018155;28;20028;-75
2022/01/09 11:59:37;;;;;;;0.60;0.45;;;2.30;99.90;;;;;;5034435;28;20300;-75
2022/01/09 12:02:05;;;;;;;0.30;0.30;;;2.20;99.90;;;;;;5034447;28;20036;-76
2022/01/09 12:04:31;;;;;;;0.22;0.22;;;2.30;99.90;;;;;;5034341;28;20025;-76
2022/01/09 12:06:58;;;;;;;0.20;0.20;;;2.40;99.90;;;;;;5051788;28;20067;-76
2022/01/09 12:09:47;;;;;;;5.78;0.77;;;2.30;99.90;;;;;;5033742;28;20454;-76
2022/01/09 12:12:34;;;;;;;0.30;0.30;;;2.40;99.90;;;;;;5034709;28;20025;-77
2022/01/09 12:15:04;;;;;;;0.30;0.30;;;2.40;99.90;;;;;;5017782;28;20021;-76
2022/01/09 12:17:44;;;;;;;0.35;0.35;;;2.70;99.90;;;;;;5034172;28;20481;-78
2022/01/09 12:20:13;;;;;;;3.50;0.60;;;2.60;99.90;;;;;;5017434;28;20037;-76
2022/01/09 12:22:50;;;;;;;1.73;0.98;;;2.70;99.90;;;;;;5051730;28;20071;-76
2022/01/09 12:25:25;;;;;;;0.77;0.57;;;2.50;99.90;;;;;;5034049;28;20025;-76
2022/01/09 12:28:20;;;;;;;0.30;0.30;;;2.60;99.90;;;;;;5051899;28;20088;-76
2022/01/09 12:30:49;;;;;;;0.75;0.50;;;2.60;99.90;;;;;;5033948;28;20392;-76
2022/01/09 12:33:35;;;;;;;0.55;0.55;;;2.60;99.90;;;;;;5033978;28;20056;-75
2022/01/09 12:36:04;;;;;;;9.15;0.93;;;2.60;99.90;;;;;;5017360;28;20393;-76
2022/01/09 12:38:35;;;;;;;2.33;0.90;;;2.50;99.90;;;;;;5051813;28;20392;-76
2022/01/09 12:41:03;;;;;;;;;;;2.50;99.90;;;;;;5034144;28;20021;-76
2022/01/09 12:43:32;;;;;;;0.50;0.50;;;2.50;99.90;;;;;;5034066;28;19991;-76
2022/01/09 12:45:58;;;;;;;0.47;0.40;;;2.50;99.90;;;;;;5017361;28;20029;-77
2022/01/09 12:48:25;;;;;;;0.20;0.20;;;2.50;99.90;;;;;;5051704;28;20028;-77
2022/01/09 12:50:52;;;;;;;0.30;0.30;;;2.60;99.90;;;;;;5033837;28;20029;-76
2022/01/09 12:53:23;;;;;;;0.30;0.30;;;2.50;99.90;;;;;;5033841;28;20048;-76
2022/01/09 12:56:10;;;;;;;0.43;0.43;;;2.60;99.90;;;;;;5033759;28;20025;-77
2022/01/09 12:58:47;;;;;;;1.30;1.23;;;2.50;99.90;;;;;;5033968;28;20089;-77
2022/01/09 13:01:12;;;;;;;0.30;0.30;;;2.60;99.90;;;;;;5033584;28;20097;-77
2022/01/09 13:03:40;;;;;;;0.38;0.38;;;2.50;99.90;;;;;;5051511;28;20021;-77